CO91 weather

Heli-Support Heliport
Fort Collins, Colorado, United States

Public forecast

Using degrees Fahrenheit for public forecast. Weather courtesy of forecast.io.

METAR (pilot weather report)

Closest report is Northern Colorado Regional Airport, 8.0 nm (14.8 km) S. Retrieved 2019/08/25 14:56 UTC (27 minutes ago):

KFNL 251456Z AUTO 00000KT 10SM CLR 23/07 A2999 RMK AO2 SLP088 T02330072 51006

TAF (pilot weather forecast)

Closest forecast is Cheyenne Regional Jerry Olson Field, 35.8 nm (66.3 km) NNE. Retrieved 2019/08/25 12:22 UTC (3 hours ago):

TAF KCYS 251120Z 2512/2612 28008KT P6SM SCT250 FM251500 30018G25KT P6SM SKC FM260100 29011KT P6SM SKC